Time;durP1;ratioP1;P1;durP2;ratioP2;P2;SDS_P1;SDS_P2;PMS_P1;PMS_P2;Temp;Humidity;BMP_temperature;BMP_pressure;BME280_temperature;BME280_humidity;BME280_pressure;Samples;Min_cycle;Max_cycle;Signal;HPM_P1;HPM_P2
2024/01/02 00:00:51;;;;;;;11.82;3.30;;;12.30;81.70;;;;;;5033529;28;20057;-89
2024/01/02 00:03:18;;;;;;;16.42;4.20;;;12.30;81.70;;;;;;5046651;28;20085;-87
2024/01/02 00:05:44;;;;;;;15.50;3.40;;;12.30;81.70;;;;;;5063928;28;20521;-87
2024/01/02 00:08:10;;;;;;;12.95;3.53;;;12.40;81.90;;;;;;5047725;28;20032;-89
2024/01/02 00:10:37;;;;;;;17.02;4.78;;;12.40;81.90;;;;;;5053667;28;20025;-90
2024/01/02 00:13:04;;;;;;;16.95;4.80;;;12.40;81.90;;;;;;5041902;28;20048;-91
2024/01/02 00:15:30;;;;;;;13.38;3.20;;;12.40;81.80;;;;;;5051505;28;20026;-92
2024/01/02 00:17:58;;;;;;;21.05;4.22;;;12.40;81.80;;;;;;5060479;28;20013;-93
2024/01/02 00:20:24;;;;;;;16.00;4.15;;;12.40;81.80;;;;;;5083452;28;20044;-93
2024/01/02 00:22:50;;;;;;;21.58;4.20;;;12.40;81.80;;;;;;5057334;28;20060;-93
2024/01/02 00:25:16;;;;;;;18.17;4.65;;;12.40;81.90;;;;;;5059935;28;20032;-92
2024/01/02 00:27:42;;;;;;;17.75;5.00;;;12.40;81.80;;;;;;5060063;28;20033;-94
2024/01/02 00:30:10;;;;;;;15.95;3.83;;;12.40;81.80;;;;;;5068847;28;20044;-95
2024/01/02 00:32:36;;;;;;;21.00;5.00;;;12.40;82.30;;;;;;5046781;28;20421;-92
2024/01/02 00:35:03;;;;;;;18.35;4.82;;;12.30;81.70;;;;;;5040829;28;20084;-92
2024/01/02 00:37:29;;;;;;;22.77;5.97;;;12.40;81.80;;;;;;5022802;28;20052;-94
2024/01/02 00:39:55;;;;;;;17.50;4.70;;;12.40;81.80;;;;;;5018672;28;20609;-93
2024/01/02 00:42:21;;;;;;;18.75;4.60;;;12.30;81.70;;;;;;5039819;28;20387;-90
2024/01/02 00:44:48;;;;;;;26.10;4.78;;;12.40;81.80;;;;;;5041528;28;20028;-90
2024/01/02 00:47:14;;;;;;;20.77;4.47;;;12.40;81.90;;;;;;5019127;28;20564;-86
2024/01/02 00:49:40;;;;;;;20.23;5.20;;;12.30;81.70;;;;;;5017909;28;20025;-88
2024/01/02 00:52:06;;;;;;;22.70;4.20;;;12.40;81.90;;;;;;5032279;28;20311;-92
2024/01/02 00:54:32;;;;;;;20.10;5.22;;;12.30;81.70;;;;;;5031573;28;20475;-95
2024/01/02 00:56:58;;;;;;;22.33;5.28;;;12.30;81.70;;;;;;5042542;28;20029;-93
2024/01/02 00:59:24;;;;;;;23.10;6.63;;;12.30;81.60;;;;;;5020623;28;20029;-94
2024/01/02 01:01:50;;;;;;;18.70;4.57;;;12.30;81.60;;;;;;5025068;28;20047;-94
2024/01/02 01:04:16;;;;;;;21.58;5.60;;;12.30;81.60;;;;;;5057927;28;20601;-92
2024/01/02 01:06:42;;;;;;;18.77;6.20;;;12.30;81.60;;;;;;5031241;28;20034;-94
2024/01/02 01:09:09;;;;;;;24.42;5.72;;;12.30;81.60;;;;;;5043697;28;20471;-92
2024/01/02 01:11:34;;;;;;;21.70;5.93;;;12.30;81.50;;;;;;5021010;28;20078;-91
2024/01/02 01:14:02;;;;;;;18.45;5.13;;;12.30;81.50;;;;;;5038519;28;20048;-94
2024/01/02 01:16:27;;;;;;;21.63;5.32;;;12.30;81.50;;;;;;5026392;28;20590;-88
2024/01/02 01:18:53;;;;;;;26.08;4.50;;;12.30;81.50;;;;;;5036157;28;20114;-87
2024/01/02 01:21:20;;;;;;;25.42;5.00;;;12.30;81.50;;;;;;5040332;28;20059;-87
2024/01/02 01:23:46;;;;;;;22.17;4.95;;;12.30;81.50;;;;;;5040321;28;20043;-88
2024/01/02 01:26:12;;;;;;;26.27;6.13;;;12.30;81.50;;;;;;5056365;28;20088;-89
2024/01/02 01:28:38;;;;;;;31.08;8.13;;;12.30;81.50;;;;;;5034257;28;20023;-89
2024/01/02 01:31:05;;;;;;;23.17;5.40;;;12.30;81.40;;;;;;5037471;28;20590;-86
2024/01/02 01:33:33;;;;;;;22.85;4.68;;;12.30;81.50;;;;;;5035377;28;20025;-89
2024/01/02 01:35:59;;;;;;;27.23;6.05;;;12.30;81.40;;;;;;5030650;28;20106;-89
2024/01/02 01:38:25;;;;;;;20.92;4.63;;;12.30;81.40;;;;;;5051477;28;20430;-92
2024/01/02 01:40:51;;;;;;;26.02;6.70;;;12.20;81.20;;;;;;5026385;28;20042;-90
2024/01/02 01:43:17;;;;;;;23.88;6.13;;;12.20;81.20;;;;;;5035034;28;20037;-91
2024/01/02 01:45:43;;;;;;;25.60;5.53;;;12.20;81.20;;;;;;5055078;28;20032;-93
2024/01/02 01:48:10;;;;;;;27.48;6.13;;;12.20;81.20;;;;;;5017208;28;20049;-91
2024/01/02 01:50:38;;;;;;;28.67;6.05;;;12.30;81.40;;;;;;5039647;28;20026;-92
2024/01/02 01:53:06;;;;;;;25.85;6.47;;;12.30;81.40;;;;;;5033999;28;20022;-93
2024/01/02 01:55:33;;;;;;;27.80;6.25;;;12.20;81.20;;;;;;5021076;28;20039;-92
2024/01/02 01:58:00;;;;;;;22.92;5.47;;;12.30;81.30;;;;;;5050580;28;20121;-93
2024/01/02 02:00:26;;;;;;;21.35;4.90;;;12.20;81.10;;;;;;5037326;28;20041;-93
2024/01/02 02:02:52;;;;;;;18.00;5.03;;;12.20;81.10;;;;;;5031158;28;20048;-87
2024/01/02 02:05:22;;;;;;;29.08;5.65;;;12.20;81.10;;;;;;5036993;28;20033;-88
2024/01/02 02:07:48;;;;;;;21.25;4.72;;;12.20;81.10;;;;;;5037028;28;20075;-90
2024/01/02 02:10:16;;;;;;;27.77;7.88;;;12.20;81.00;;;;;;5053653;28;20109;-90
2024/01/02 02:12:42;;;;;;;21.63;4.90;;;12.20;81.00;;;;;;5022509;28;20025;-88
2024/01/02 02:15:08;;;;;;;26.33;5.95;;;12.20;81.00;;;;;;5037480;28;20120;-90
2024/01/02 02:17:37;;;;;;;21.50;4.45;;;12.20;81.00;;;;;;5034860;28;20160;-89
2024/01/02 02:20:05;;;;;;;20.80;6.57;;;12.20;81.00;;;;;;5039264;28;20025;-90
2024/01/02 02:22:36;;;;;;;26.38;5.95;;;12.20;81.00;;;;;;5049943;28;20025;-88
2024/01/02 02:25:08;;;;;;;23.15;5.95;;;12.20;81.00;;;;;;5034879;28;20102;-89
2024/01/02 02:27:35;;;;;;;;;;;12.20;81.00;;;;;;5035177;28;20021;-90
2024/01/02 02:30:01;;;;;;;26.33;6.20;;;12.20;80.90;;;;;;5035210;28;20023;-88
2024/01/02 02:32:27;;;;;;;25.83;6.38;;;12.20;80.80;;;;;;5052672;28;20093;-89
2024/01/02 02:34:53;;;;;;;17.98;5.53;;;12.20;80.80;;;;;;5034040;28;20037;-89
2024/01/02 02:37:19;;;;;;;22.73;5.72;;;12.20;80.80;;;;;;5045695;28;20078;-90
2024/01/02 02:39:45;;;;;;;20.95;5.22;;;12.20;80.80;;;;;;5053913;28;20448;-89
2024/01/02 02:42:11;;;;;;;26.25;6.70;;;12.20;80.90;;;;;;5041272;28;20021;-88
2024/01/02 02:44:38;;;;;;;25.08;6.03;;;12.20;80.90;;;;;;5038770;28;20037;-89
2024/01/02 02:47:04;;;;;;;21.65;4.88;;;12.20;80.90;;;;;;5042920;28;20049;-89
2024/01/02 02:49:31;;;;;;;20.98;4.82;;;12.20;80.80;;;;;;5056385;28;20033;-92
2024/01/02 02:51:57;;;;;;;25.90;5.38;;;12.20;80.80;;;;;;5052177;28;20060;-92
2024/01/02 02:54:23;;;;;;;19.30;4.63;;;12.20;80.80;;;;;;5040400;28;20679;-90
2024/01/02 02:56:49;;;;;;;16.55;4.55;;;12.20;81.30;;;;;;5060101;28;20483;-87
2024/01/02 02:59:15;;;;;;;22.05;6.32;;;12.20;80.70;;;;;;5042371;28;20493;-87
2024/01/02 03:01:41;;;;;;;23.35;6.10;;;12.20;80.70;;;;;;5044838;28;20067;-88
2024/01/02 03:04:07;;;;;;;19.23;5.20;;;12.30;80.90;;;;;;5043398;28;20033;-89
2024/01/02 03:06:34;;;;;;;20.48;4.63;;;12.20;80.70;;;;;;5043614;28;20085;-89
2024/01/02 03:08:59;;;;;;;17.77;4.18;;;12.30;80.80;;;;;;5035096;28;20476;-87
2024/01/02 03:11:25;;;;;;;20.17;4.35;;;12.20;80.70;;;;;;5043547;28;20028;-88
2024/01/02 03:13:51;;;;;;;21.67;4.70;;;12.20;81.20;;;;;;5043432;28;20033;-91
2024/01/02 03:16:19;;;;;;;25.15;4.88;;;12.20;80.70;;;;;;5043219;28;20127;-92
2024/01/02 03:18:45;;;;;;;16.88;5.03;;;12.20;80.70;;;;;;5043592;28;20025;-89
2024/01/02 03:21:13;;;;;;;23.52;6.72;;;12.30;80.80;;;;;;5044820;28;20092;-90
2024/01/02 03:23:39;;;;;;;22.00;5.43;;;12.20;80.70;;;;;;5042684;28;20041;-93
2024/01/02 03:26:05;;;;;;;23.42;4.30;;;12.20;80.60;;;;;;5048632;28;20091;-89
2024/01/02 03:28:31;;;;;;;18.50;5.63;;;12.20;80.60;;;;;;5038798;28;20190;-91
2024/01/02 03:30:58;;;;;;;20.50;4.93;;;12.20;80.70;;;;;;5047341;28;20060;-92
2024/01/02 03:33:24;;;;;;;21.45;4.95;;;12.20;80.60;;;;;;5061919;28;20040;-92
2024/01/02 03:35:50;;;;;;;24.13;5.88;;;12.30;80.80;;;;;;5046646;28;20206;-91
2024/01/02 03:38:16;;;;;;;20.48;4.63;;;12.30;80.70;;;;;;5045160;28;20025;-93
2024/01/02 03:40:42;;;;;;;18.80;4.75;;;12.20;80.60;;;;;;5039451;28;20083;-88
2024/01/02 03:43:08;;;;;;;18.40;5.43;;;12.30;80.70;;;;;;5061079;28;20047;-89
2024/01/02 03:45:35;;;;;;;14.70;3.85;;;12.30;80.70;;;;;;5053609;28;20116;-90
2024/01/02 03:48:01;;;;;;;20.25;4.72;;;12.30;80.60;;;;;;5040977;28;20094;-89
2024/01/02 03:50:27;;;;;;;19.95;4.43;;;12.20;80.50;;;;;;5038567;28;20036;-89
2024/01/02 03:52:53;;;;;;;20.33;5.05;;;12.20;80.40;;;;;;5040776;28;20388;-88
2024/01/02 03:55:19;;;;;;;23.42;5.70;;;12.20;80.40;;;;;;5037581;28;20037;-90
2024/01/02 03:57:45;;;;;;;15.32;3.90;;;12.30;80.50;;;;;;5039935;28;20056;-89
2024/01/02 04:00:11;;;;;;;14.38;3.85;;;12.30;80.50;;;;;;5062121;28;20047;-88
2024/01/02 04:02:37;;;;;;;18.10;3.65;;;12.20;80.30;;;;;;5046175;28;20012;-88
2024/01/02 04:05:04;;;;;;;17.10;4.18;;;12.20;80.30;;;;;;5044770;28;20565;-87
2024/01/02 04:07:30;;;;;;;15.95;4.45;;;12.30;80.50;;;;;;5045062;28;20491;-89
2024/01/02 04:09:56;;;;;;;21.88;4.90;;;12.30;80.40;;;;;;5050475;28;20067;-88
2024/01/02 04:12:22;;;;;;;17.70;4.18;;;12.20;80.30;;;;;;5036484;28;20020;-87
2024/01/02 04:14:49;;;;;;;15.95;4.15;;;12.20;80.30;;;;;;5037389;28;20109;-87
2024/01/02 04:17:15;;;;;;;19.35;4.88;;;12.20;80.20;;;;;;5044913;28;20594;-89
2024/01/02 04:19:41;;;;;;;15.50;3.72;;;12.30;80.40;;;;;;5043257;28;20265;-88
2024/01/02 04:22:08;;;;;;;18.33;3.83;;;12.30;80.40;;;;;;5046869;28;20165;-89
2024/01/02 04:24:34;;;;;;;16.92;5.63;;;12.20;80.20;;;;;;5046638;28;20044;-89
2024/01/02 04:27:00;;;;;;;17.67;4.63;;;12.30;80.40;;;;;;5041243;28;20029;-88
2024/01/02 04:29:26;;;;;;;16.33;3.88;;;12.20;80.20;;;;;;5052775;28;20529;-89
2024/01/02 04:31:53;;;;;;;17.25;3.75;;;12.20;80.20;;;;;;5037170;28;20419;-87
2024/01/02 04:34:19;;;;;;;15.13;3.90;;;12.20;80.20;;;;;;5039836;28;20442;-88
2024/01/02 04:36:45;;;;;;;11.15;3.05;;;12.30;80.30;;;;;;5039088;28;20056;-89
2024/01/02 04:39:11;;;;;;;17.65;4.00;;;12.30;80.30;;;;;;5042571;28;20094;-88
2024/01/02 04:41:37;;;;;;;17.88;3.70;;;12.30;80.30;;;;;;5042324;28;20028;-87
2024/01/02 04:44:03;;;;;;;11.65;3.22;;;12.20;80.10;;;;;;5026021;28;20128;-88
2024/01/02 04:46:29;;;;;;;8.68;2.90;;;12.20;80.10;;;;;;5041800;28;20052;-88
2024/01/02 04:48:55;;;;;;;15.88;3.30;;;12.30;80.20;;;;;;5058095;28;20076;-88
2024/01/02 04:51:21;;;;;;;17.95;4.07;;;12.20;80.10;;;;;;5037015;28;20040;-93
2024/01/02 04:53:47;;;;;;;19.90;4.20;;;12.30;80.20;;;;;;5041889;28;20032;-92
2024/01/02 04:56:14;;;;;;;24.40;4.57;;;12.20;80.00;;;;;;5028396;28;20032;-92
2024/01/02 04:58:40;;;;;;;16.60;3.65;;;12.20;80.00;;;;;;5035136;28;20076;-87
2024/01/02 05:01:06;;;;;;;17.23;4.30;;;12.20;80.00;;;;;;5039775;28;20428;-88
2024/01/02 05:03:32;;;;;;;15.90;3.72;;;12.20;80.00;;;;;;5037694;28;20032;-87
2024/01/02 05:05:58;;;;;;;13.82;3.70;;;12.20;80.00;;;;;;5042051;28;20028;-85
2024/01/02 05:08:24;;;;;;;14.45;4.18;;;12.20;80.00;;;;;;5036100;28;20379;-86
2024/01/02 05:10:50;;;;;;;15.07;3.97;;;12.30;80.20;;;;;;5023803;28;20569;-88
2024/01/02 05:13:16;;;;;;;16.73;3.92;;;12.30;80.20;;;;;;5047783;28;20029;-88
2024/01/02 05:15:42;;;;;;;12.02;3.22;;;12.20;80.00;;;;;;5044498;28;20514;-87
2024/01/02 05:18:08;;;;;;;16.42;3.92;;;12.20;80.00;;;;;;5037616;28;20028;-87
2024/01/02 05:20:34;;;;;;;15.20;3.25;;;12.20;80.00;;;;;;5040020;28;20461;-88
2024/01/02 05:23:03;;;;;;;15.93;3.60;;;12.20;80.00;;;;;;5038324;28;20069;-87
2024/01/02 05:25:31;;;;;;;12.13;3.35;;;12.20;80.00;;;;;;5038832;28;20166;-88
2024/01/02 05:27:58;;;;;;;20.45;4.80;;;12.30;80.20;;;;;;5041482;28;20032;-87
2024/01/02 05:30:25;;;;;;;18.77;4.18;;;12.20;80.00;;;;;;5035607;28;20364;-88
2024/01/02 05:32:51;;;;;;;15.40;3.75;;;12.30;80.10;;;;;;5044678;28;20029;-88
2024/01/02 05:35:18;;;;;;;12.25;3.97;;;12.30;80.20;;;;;;5041042;28;20037;-86
2024/01/02 05:37:45;;;;;;;15.13;4.53;;;12.30;80.10;;;;;;5047531;28;20033;-87
2024/01/02 05:40:11;;;;;;;13.82;4.15;;;12.20;80.00;;;;;;5051060;28;20096;-85
2024/01/02 05:42:38;;;;;;;9.95;3.00;;;12.20;80.00;;;;;;5052894;28;20048;-85
2024/01/02 05:45:04;;;;;;;15.18;5.47;;;12.20;80.00;;;;;;5062291;28;20021;-86
2024/01/02 05:47:30;;;;;;;16.15;3.42;;;12.20;80.00;;;;;;5059081;28;20110;-86
2024/01/02 05:49:56;;;;;;;15.98;4.40;;;12.20;80.00;;;;;;5053307;28;20591;-85
2024/01/02 05:52:23;;;;;;;12.60;3.38;;;12.20;80.10;;;;;;5058371;28;20242;-86
2024/01/02 05:54:49;;;;;;;16.77;4.45;;;12.20;80.10;;;;;;5066543;28;20037;-84
2024/01/02 05:57:15;;;;;;;15.10;3.65;;;12.20;80.10;;;;;;5062403;28;20127;-88
2024/01/02 05:59:41;;;;;;;21.50;4.68;;;12.20;80.10;;;;;;5051603;28;20552;-88
2024/01/02 06:02:07;;;;;;;16.10;4.30;;;12.20;80.10;;;;;;5036398;28;20047;-85
2024/01/02 06:04:34;;;;;;;14.52;4.10;;;12.20;80.10;;;;;;5042175;28;20565;-91
2024/01/02 06:07:00;;;;;;;15.65;3.85;;;12.20;80.20;;;;;;5041430;28;20033;-91
2024/01/02 06:09:26;;;;;;;14.13;2.63;;;12.20;80.20;;;;;;5038922;28;20025;-94
2024/01/02 06:11:52;;;;;;;12.30;3.65;;;12.20;80.20;;;;;;5056152;28;20411;-94
2024/01/02 06:14:18;;;;;;;13.15;3.53;;;12.20;80.20;;;;;;5048010;28;20032;-93
2024/01/02 06:16:44;;;;;;;10.32;4.25;;;12.20;80.20;;;;;;5051089;28;20108;-93
2024/01/02 06:19:09;;;;;;;17.02;4.07;;;12.20;80.30;;;;;;5045850;28;20175;-92
2024/01/02 06:21:35;;;;;;;16.35;3.88;;;12.20;80.30;;;;;;5042968;28;20499;-88
2024/01/02 06:24:02;;;;;;;11.68;3.75;;;12.20;80.30;;;;;;5041571;28;20104;-91
2024/01/02 06:26:28;;;;;;;12.50;3.45;;;12.20;80.30;;;;;;5050584;28;20058;-90
2024/01/02 06:28:54;;;;;;;9.23;2.88;;;12.20;80.30;;;;;;5044556;28;20051;-93
2024/01/02 06:31:21;;;;;;;14.63;3.42;;;12.20;80.30;;;;;;5046981;28;20017;-92
2024/01/02 06:33:47;;;;;;;11.63;3.70;;;12.20;80.30;;;;;;5029618;28;20057;-91
2024/01/02 06:36:14;;;;;;;14.30;3.40;;;12.20;80.40;;;;;;5058907;28;20089;-87
2024/01/02 06:38:40;;;;;;;17.52;4.30;;;12.20;80.40;;;;;;5033824;28;20038;-83
2024/01/02 06:41:06;;;;;;;8.43;3.03;;;12.20;80.40;;;;;;5041030;28;20078;-87
2024/01/02 06:43:32;;;;;;;13.95;2.90;;;12.20;80.50;;;;;;5039752;28;20565;-92
2024/01/02 06:45:59;;;;;;;11.77;3.20;;;12.20;80.50;;;;;;5055071;28;20072;-93
2024/01/02 06:48:26;;;;;;;8.88;2.85;;;12.20;80.50;;;;;;5055733;28;20055;-91
2024/01/02 06:50:56;;;;;;;13.20;4.03;;;12.20;80.50;;;;;;5038379;28;20047;-93
2024/01/02 06:53:22;;;;;;;9.65;2.47;;;12.20;80.60;;;;;;5046542;28;20071;-90
2024/01/02 06:56:09;;;;;;;10.35;2.20;;;12.10;80.40;;;;;;5068202;28;20028;-95
2024/01/02 06:58:44;;;;;;;12.63;2.15;;;12.20;80.70;;;;;;5072601;28;20054;-96
2024/01/02 07:01:17;;;;;;;11.63;2.72;;;12.20;80.70;;;;;;5055114;28;20049;-96
2024/01/02 07:03:47;;;;;;;12.93;4.35;;;12.10;80.70;;;;;;5035690;28;20025;-93
2024/01/02 07:06:15;;;;;;;92.70;16.92;;;12.20;81.00;;;;;;5052056;28;20104;-94
2024/01/02 07:08:43;;;;;;;29.35;6.55;;;12.20;81.10;;;;;;5073086;28;20033;-96
2024/01/02 07:11:09;;;;;;;39.78;9.15;;;12.20;81.50;;;;;;5079963;28;20060;-95
2024/01/02 07:13:44;;;;;;;38.78;8.65;;;12.30;82.00;;;;;;5063278;28;20017;-96
2024/01/02 07:16:10;;;;;;;33.22;6.35;;;12.40;82.50;;;;;;5036279;28;20031;-95
2024/01/02 07:18:37;;;;;;;32.90;6.85;;;12.50;82.60;;;;;;5057025;28;20124;-85
2024/01/02 07:21:04;;;;;;;28.52;5.15;;;12.50;82.70;;;;;;5051057;28;20123;-90
2024/01/02 07:23:30;;;;;;;19.35;5.38;;;12.50;82.80;;;;;;5032556;28;20527;-94
2024/01/02 07:25:57;;;;;;;20.67;5.95;;;12.50;82.80;;;;;;5030948;28;20043;-91
2024/01/02 07:28:23;;;;;;;18.02;4.30;;;12.50;82.90;;;;;;5045548;28;20360;-92
2024/01/02 07:30:50;;;;;;;16.20;4.82;;;12.50;82.90;;;;;;5044232;28;20085;-91
2024/01/02 07:33:16;;;;;;;13.88;3.85;;;12.50;83.00;;;;;;5047897;28;20052;-92
2024/01/02 07:35:42;;;;;;;17.48;4.05;;;12.50;83.00;;;;;;5044552;28;20148;-96
2024/01/02 07:38:08;;;;;;;17.55;3.30;;;12.50;83.10;;;;;;5051555;28;20032;-93
2024/01/02 07:40:36;;;;;;;16.27;4.68;;;12.50;83.10;;;;;;5036384;28;20037;-94
2024/01/02 07:43:03;;;;;;;11.95;3.17;;;12.50;83.20;;;;;;5044315;28;20041;-93
2024/01/02 07:45:29;;;;;;;13.00;2.63;;;12.50;83.20;;;;;;5060298;28;20039;-93
2024/01/02 07:47:55;;;;;;;13.52;3.05;;;12.40;83.10;;;;;;5037181;28;20121;-90
2024/01/02 07:50:31;;;;;;;15.25;3.15;;;12.50;83.30;;;;;;5055752;28;20118;-92
2024/01/02 07:52:58;;;;;;;9.40;3.10;;;12.40;83.20;;;;;;5038595;28;20021;-92
2024/01/02 07:55:25;;;;;;;11.02;3.05;;;12.50;83.30;;;;;;5048615;28;20040;-90
2024/01/02 07:57:58;;;;;;;8.35;2.30;;;12.40;83.10;;;;;;5030907;28;20047;-95
2024/01/02 08:00:25;;;;;;;8.77;2.35;;;12.40;83.20;;;;;;5060352;28;20170;-96
2024/01/02 08:02:51;;;;;;;9.35;2.50;;;12.40;83.10;;;;;;5047600;28;20036;-94
2024/01/02 08:05:18;;;;;;;8.20;2.58;;;12.50;83.30;;;;;;5059330;28;20036;-94
2024/01/02 08:07:45;;;;;;;7.05;2.20;;;12.40;83.10;;;;;;5048346;28;20094;-96
2024/01/02 08:10:10;;;;;;;10.63;2.55;;;12.40;83.20;;;;;;5042911;28;20033;-93
2024/01/02 08:12:37;;;;;;;9.85;2.45;;;12.50;83.30;;;;;;5056553;28;20025;-94
2024/01/02 08:15:12;;;;;;;7.38;2.03;;;12.50;83.60;;;;;;5047847;28;20037;-96
2024/01/02 08:17:38;;;;;;;7.57;2.55;;;12.60;84.10;;;;;;5045606;28;20149;-89
2024/01/02 08:20:05;;;;;;;6.15;2.53;;;12.70;84.20;;;;;;5044411;28;20119;-89
2024/01/02 08:22:34;;;;;;;7.05;3.20;;;12.80;84.50;;;;;;5056132;28;20120;-92
2024/01/02 08:25:00;;;;;;;7.80;2.75;;;12.90;84.40;;;;;;5044124;28;20063;-87
2024/01/02 08:27:27;;;;;;;6.63;1.70;;;13.10;84.60;;;;;;5045735;28;20021;-87
2024/01/02 08:29:54;;;;;;;5.88;1.95;;;13.20;84.40;;;;;;5053152;28;20052;-87
2024/01/02 08:32:21;;;;;;;5.97;2.08;;;13.20;84.20;;;;;;5039237;28;20048;-93
2024/01/02 08:34:49;;;;;;;5.30;1.52;;;13.30;84.10;;;;;;5043756;28;20466;-94
2024/01/02 08:37:15;;;;;;;4.85;1.50;;;13.20;83.80;;;;;;5052592;28;20028;-88
2024/01/02 08:39:41;;;;;;;4.47;1.48;;;13.20;83.70;;;;;;5067220;28;20098;-96
2024/01/02 08:42:10;;;;;;;4.75;1.70;;;13.20;83.70;;;;;;5082471;28;20033;-96
2024/01/02 08:44:37;;;;;;;5.35;1.33;;;13.20;83.60;;;;;;5075490;28;20052;-95
2024/01/02 08:47:04;;;;;;;5.22;1.50;;;13.20;83.60;;;;;;5071777;28;20370;-93
2024/01/02 08:49:30;;;;;;;4.72;1.50;;;13.10;83.40;;;;;;5028737;28;20114;-96
2024/01/02 08:51:56;;;;;;;5.00;1.40;;;13.10;83.40;;;;;;5065736;28;20088;-96
2024/01/02 08:54:23;;;;;;;3.88;1.33;;;13.10;83.40;;;;;;5057572;28;20029;-95
2024/01/02 08:56:49;;;;;;;5.88;1.33;;;13.10;83.30;;;;;;5041497;28;20029;-96
2024/01/02 08:59:15;;;;;;;3.65;1.00;;;13.00;83.10;;;;;;5043942;28;20037;-93
2024/01/02 09:01:52;;;;;;;3.75;1.35;;;13.00;83.10;;;;;;5047456;28;20069;-96
2024/01/02 09:04:18;;;;;;;6.10;1.27;;;13.00;83.10;;;;;;5057874;28;20398;-94
2024/01/02 09:06:45;;;;;;;3.38;1.20;;;13.00;83.10;;;;;;5072844;28;20036;-92
2024/01/02 09:09:15;;;;;;;3.70;1.27;;;13.00;83.00;;;;;;5067695;28;20032;-95
2024/01/02 09:11:42;;;;;;;4.65;0.80;;;12.90;82.80;;;;;;5057094;28;20186;-93
2024/01/02 09:14:08;;;;;;;3.35;1.10;;;12.90;82.80;;;;;;5053343;28;20886;-94
2024/01/02 09:16:38;;;;;;;2.38;0.95;;;12.90;82.70;;;;;;5053964;28;20080;-92
2024/01/02 09:19:08;;;;;;;3.17;0.95;;;12.90;82.70;;;;;;5045688;28;20118;-91
2024/01/02 09:21:34;;;;;;;2.22;0.90;;;12.90;82.60;;;;;;5027123;28;20106;-89
2024/01/02 09:24:00;;;;;;;2.30;1.15;;;12.90;82.50;;;;;;5047809;28;20578;-90
2024/01/02 09:26:29;;;;;;;2.38;0.60;;;12.90;82.50;;;;;;5037568;28;20069;-90
2024/01/02 09:28:55;;;;;;;0.77;0.55;;;12.90;82.40;;;;;;5037830;28;20036;-91
2024/01/02 09:31:25;;;;;;;1.67;0.63;;;12.90;82.40;;;;;;5040269;28;20067;-83
2024/01/02 09:33:51;;;;;;;3.33;0.73;;;12.90;82.30;;;;;;5037358;28;20115;-86
2024/01/02 09:36:17;;;;;;;2.15;0.90;;;12.90;82.10;;;;;;5039298;28;20715;-87
2024/01/02 09:38:44;;;;;;;1.83;0.70;;;12.90;82.10;;;;;;5051381;28;20091;-87
2024/01/02 09:41:25;;;;;;;1.27;0.45;;;12.90;82.00;;;;;;5029694;28;20219;-90
2024/01/02 09:44:29;;;;;;;2.20;0.50;;;12.90;81.90;;;;;;5040282;28;20036;-96
2024/01/02 09:47:04;;;;;;;1.85;0.80;;;13.00;82.00;;;;;;5052986;28;20017;-87
2024/01/02 09:49:45;;;;;;;1.38;0.60;;;13.00;81.90;;;;;;5060866;28;20029;-92
2024/01/02 09:52:39;;;;;;;1.70;0.70;;;12.90;81.60;;;;;;5055294;28;20530;-91
2024/01/02 09:55:33;;;;;;;0.80;0.47;;;13.00;81.60;;;;;;5051801;28;20064;-90
2024/01/02 09:58:19;;;;;;;2.58;0.50;;;13.00;81.50;;;;;;5035107;28;20395;-89
2024/01/02 10:01:11;;;;;;;0.90;0.50;;;13.00;81.40;;;;;;5046081;28;20458;-92
2024/01/02 10:07:53;;;;;;;0.90;0.40;;;13.00;81.10;;;;;;5064061;28;20043;-96
2024/01/02 10:10:52;;;;;;;0.63;0.40;;;13.10;81.20;;;;;;5069900;28;20099;-96
2024/01/02 10:13:39;;;;;;;1.63;0.40;;;13.10;81.10;;;;;;5077712;28;20044;-96
2024/01/02 10:16:12;;;;;;;1.52;0.50;;;13.10;81.00;;;;;;5058074;28;20053;-95
2024/01/02 10:19:30;;;;;;;1.17;0.40;;;13.10;80.90;;;;;;5072343;28;20021;-95
2024/01/02 10:22:25;;;;;;;0.68;0.40;;;13.20;80.90;;;;;;5080955;28;20107;-96
2024/01/02 10:24:58;;;;;;;1.30;0.45;;;13.30;80.90;;;;;;5027612;28;20079;-96
2024/01/02 10:27:46;;;;;;;0.40;0.32;;;13.30;80.80;;;;;;5070692;28;20129;-96
2024/01/02 10:30:17;;;;;;;0.65;0.47;;;13.30;80.60;;;;;;5052207;28;20129;-96
2024/01/02 10:32:50;;;;;;;1.05;0.40;;;13.30;80.50;;;;;;5051178;28;20063;-94
2024/01/02 10:35:44;;;;;;;0.90;0.32;;;13.40;80.60;;;;;;5054470;28;20096;-96
2024/01/02 10:38:20;;;;;;;0.73;0.30;;;13.40;80.40;;;;;;5065810;28;20171;-94
2024/01/02 10:41:03;;;;;;;1.70;0.60;;;13.40;80.30;;;;;;5063642;28;20090;-96
2024/01/02 10:43:33;;;;;;;;;;;13.50;80.30;;;;;;5055672;28;20347;-94
2024/01/02 10:46:32;;;;;;;2.08;0.47;;;13.50;80.20;;;;;;5070465;28;19988;-96
2024/01/02 10:49:27;;;;;;;0.82;0.30;;;13.50;80.10;;;;;;5086407;28;20063;-96
2024/01/02 10:52:03;;;;;;;0.73;0.73;;;13.50;80.00;;;;;;5075255;23;20061;-76
2024/01/02 10:54:28;;;;;;;3.97;0.40;;;13.60;80.20;;;;;;5022748;28;20080;-76
2024/01/02 10:57:04;;;;;;;0.73;0.30;;;13.50;80.00;;;;;;5020546;28;20603;-76
2024/01/02 10:59:49;;;;;;;3.13;1.17;;;13.60;80.20;;;;;;5021933;28;20037;-76
2024/01/02 11:03:09;;;;;;;3.35;0.70;;;13.60;80.10;;;;;;5038500;28;20056;-76
2024/01/02 11:05:43;;;;;;;1.58;0.10;;;13.60;80.00;;;;;;4945255;28;20121;-76
2024/01/02 11:08:19;;;;;;;0.75;0.40;;;13.60;80.00;;;;;;5019199;28;20050;-76
2024/01/02 11:10:57;;;;;;;0.45;0.32;;;13.70;80.20;;;;;;5021920;28;20033;-75
2024/01/02 11:13:26;;;;;;;0.98;0.45;;;13.70;80.20;;;;;;5020604;28;20140;-76
2024/01/02 11:15:58;;;;;;;1.00;0.30;;;13.70;80.20;;;;;;5019770;28;20030;-76
2024/01/02 11:18:31;;;;;;;1.20;0.45;;;13.70;80.30;;;;;;5019999;28;20049;-76
2024/01/02 11:21:10;;;;;;;1.55;0.40;;;13.70;80.80;;;;;;5015383;28;20049;-77
2024/01/02 11:23:47;;;;;;;1.65;0.30;;;13.80;80.40;;;;;;5018289;28;20049;-75
2024/01/02 11:26:29;;;;;;;1.13;0.40;;;13.80;80.50;;;;;;5020833;28;20037;-75
2024/01/02 11:29:00;;;;;;;0.85;0.30;;;13.90;80.60;;;;;;5019206;28;20037;-76
2024/01/02 11:31:29;;;;;;;2.05;0.65;;;13.90;80.50;;;;;;5033285;28;20599;-75
2024/01/02 11:34:22;;;;;;;1.23;0.30;;;13.90;80.50;;;;;;5036091;28;20606;-76
2024/01/02 11:37:08;;;;;;;1.33;0.45;;;14.00;81.20;;;;;;5020559;28;20459;-75
2024/01/02 11:39:49;;;;;;;0.85;0.32;;;14.00;80.60;;;;;;5035713;28;20092;-76
2024/01/02 11:42:44;;;;;;;1.70;0.30;;;14.00;80.60;;;;;;5054816;28;20033;-76
2024/01/02 11:45:20;;;;;;;0.35;0.20;;;14.10;80.70;;;;;;5039555;28;20236;-76
2024/01/02 11:48:12;;;;;;;0.52;0.30;;;14.10;80.70;;;;;;5035286;28;20504;-76
2024/01/02 11:50:50;;;;;;;0.40;0.30;;;14.20;80.90;;;;;;5030450;28;20037;-75
2024/01/02 11:53:33;;;;;;;0.57;0.22;;;14.20;80.80;;;;;;5030059;28;20116;-75
2024/01/02 11:56:05;;;;;;;0.60;0.32;;;14.20;80.80;;;;;;5012612;28;20033;-75
2024/01/02 11:58:42;;;;;;;0.98;0.40;;;14.30;80.90;;;;;;5022353;28;20417;-75
2024/01/02 12:01:12;;;;;;;1.33;0.30;;;14.40;80.90;;;;;;5014169;28;20089;-75
2024/01/02 12:04:13;;;;;;;0.38;0.30;;;14.50;81.00;;;;;;5006420;28;20382;-75
2024/01/02 12:06:51;;;;;;;1.60;0.45;;;14.60;81.00;;;;;;5007406;28;20040;-75
2024/01/02 12:09:19;;;;;;;0.68;0.20;;;14.70;81.00;;;;;;5012807;28;20088;-75
2024/01/02 12:11:57;;;;;;;0.52;0.25;;;14.70;80.80;;;;;;5013290;28;20032;-75
2024/01/02 12:14:32;;;;;;;0.40;0.30;;;14.80;80.90;;;;;;5017985;28;20230;-76
2024/01/02 12:17:05;;;;;;;0.82;0.30;;;14.90;81.00;;;;;;5015672;28;20033;-76
2024/01/02 12:19:33;;;;;;;0.60;0.38;;;14.90;80.90;;;;;;5016014;28;20389;-75
2024/01/02 12:22:00;;;;;;;0.95;0.30;;;15.00;81.00;;;;;;5027731;28;20603;-75
2024/01/02 12:24:30;;;;;;;0.85;0.32;;;15.10;81.10;;;;;;5008129;28;20046;-75
2024/01/02 12:26:58;;;;;;;0.43;0.20;;;15.20;81.10;;;;;;5023073;28;20037;-75
2024/01/02 12:29:48;;;;;;;1.13;0.22;;;15.20;81.00;;;;;;5017163;28;20120;-75
2024/01/02 12:32:44;;;;;;;1.05;0.30;;;15.30;81.00;;;;;;5003079;28;20065;-75
2024/01/02 12:35:29;;;;;;;3.40;0.40;;;15.30;80.90;;;;;;5008461;28;20053;-76
2024/01/02 12:38:03;;;;;;;2.50;0.45;;;15.40;80.90;;;;;;5017669;28;20037;-75
2024/01/02 12:40:32;;;;;;;0.73;0.40;;;15.40;80.80;;;;;;5006508;28;21158;-74
2024/01/02 12:42:59;;;;;;;1.52;0.50;;;15.50;80.90;;;;;;5025098;28;20370;-75
2024/01/02 12:45:31;;;;;;;2.05;0.52;;;15.50;80.90;;;;;;5013205;28;20394;-75
2024/01/02 12:48:03;;;;;;;0.98;0.50;;;15.50;80.90;;;;;;5003674;28;20088;-72
2024/01/02 12:50:31;;;;;;;1.73;0.43;;;15.50;80.90;;;;;;5011519;28;20036;-75
2024/01/02 12:53:07;;;;;;;2.03;0.80;;;15.60;81.00;;;;;;5015594;28;20329;-75
2024/01/02 12:55:56;;;;;;;1.08;0.43;;;15.60;80.90;;;;;;5014876;28;20032;-74
2024/01/02 12:58:24;;;;;;;3.15;0.70;;;15.60;80.80;;;;;;5006624;28;20069;-75